sensor_id;sensor_type;location;lat;lon;timestamp;pressure;altitude;pressure_sealevel;temperature;humidity
20971;BME280;10644;48.834;10.088;2022-11-20T00:01:18;96100.56;;;9.86;69.79
20971;BME280;10644;48.834;10.088;2022-11-20T00:03:45;96107.78;;;9.79;69.79
20971;BME280;10644;48.834;10.088;2022-11-20T00:06:14;96106.13;;;9.92;69.30
20971;BME280;10644;48.834;10.088;2022-11-20T00:08:42;96099.91;;;9.96;69.24
20971;BME280;10644;48.834;10.088;2022-11-20T00:11:10;96097.72;;;9.90;68.91
20971;BME280;10644;48.834;10.088;2022-11-20T00:13:36;96099.53;;;10.02;68.76
20971;BME280;10644;48.834;10.088;2022-11-20T00:16:03;96093.88;;;9.97;68.51
20971;BME280;10644;48.834;10.088;2022-11-20T00:18:36;96098.81;;;10.00;68.42
20971;BME280;10644;48.834;10.088;2022-11-20T00:21:22;96106.47;;;9.86;68.80
20971;BME280;10644;48.834;10.088;2022-11-20T00:23:48;96101.28;;;9.88;68.85
20971;BME280;10644;48.834;10.088;2022-11-20T00:26:17;96107.78;;;9.93;68.71
20971;BME280;10644;48.834;10.088;2022-11-20T00:28:43;96105.84;;;9.83;68.84
20971;BME280;10644;48.834;10.088;2022-11-20T00:31:14;96107.56;;;9.96;69.02
20971;BME280;10644;48.834;10.088;2022-11-20T00:33:42;96106.03;;;9.94;68.74
20971;BME280;10644;48.834;10.088;2022-11-20T00:36:10;96106.13;;;10.06;68.33
20971;BME280;10644;48.834;10.088;2022-11-20T00:38:36;96101.94;;;10.05;68.04
20971;BME280;10644;48.834;10.088;2022-11-20T00:41:03;96105.94;;;9.95;68.21
20971;BME280;10644;48.834;10.088;2022-11-20T00:43:29;96103.00;;;10.01;68.58
20971;BME280;10644;48.834;10.088;2022-11-20T00:46:18;96099.19;;;9.94;68.07
20971;BME280;10644;48.834;10.088;2022-11-20T00:48:47;96101.53;;;9.97;68.31
20971;BME280;10644;48.834;10.088;2022-11-20T00:51:18;96102.56;;;10.09;67.44
20971;BME280;10644;48.834;10.088;2022-11-20T00:53:49;96111.03;;;10.23;67.80
20971;BME280;10644;48.834;10.088;2022-11-20T00:56:16;96113.44;;;10.12;67.67
20971;BME280;10644;48.834;10.088;2022-11-20T00:58:43;96117.19;;;10.07;67.23
20971;BME280;10644;48.834;10.088;2022-11-20T01:01:13;96113.06;;;9.90;68.07
20971;BME280;10644;48.834;10.088;2022-11-20T01:03:42;96117.91;;;9.95;67.96
20971;BME280;10644;48.834;10.088;2022-11-20T01:06:11;96110.78;;;10.00;67.73
20971;BME280;10644;48.834;10.088;2022-11-20T01:08:43;96111.59;;;10.14;67.62
20971;BME280;10644;48.834;10.088;2022-11-20T01:11:11;96111.41;;;10.17;67.11
20971;BME280;10644;48.834;10.088;2022-11-20T01:13:38;96110.28;;;10.35;66.56
20971;BME280;10644;48.834;10.088;2022-11-20T01:16:11;96119.41;;;10.39;66.56
20971;BME280;10644;48.834;10.088;2022-11-20T01:18:39;96118.19;;;10.45;65.94
20971;BME280;10644;48.834;10.088;2022-11-20T01:21:08;96114.63;;;10.47;65.95
20971;BME280;10644;48.834;10.088;2022-11-20T01:23:38;96114.69;;;10.33;66.14
20971;BME280;10644;48.834;10.088;2022-11-20T01:26:07;96121.81;;;10.28;65.90
20971;BME280;10644;48.834;10.088;2022-11-20T01:28:32;96124.19;;;10.31;65.93
20971;BME280;10644;48.834;10.088;2022-11-20T01:31:01;96124.72;;;10.36;65.97
20971;BME280;10644;48.834;10.088;2022-11-20T01:33:28;96128.66;;;10.28;65.99
20971;BME280;10644;48.834;10.088;2022-11-20T01:36:03;96124.75;;;10.22;65.90
20971;BME280;10644;48.834;10.088;2022-11-20T01:38:29;96129.66;;;10.25;65.88
20971;BME280;10644;48.834;10.088;2022-11-20T01:40:55;96134.28;;;10.06;66.03
20971;BME280;10644;48.834;10.088;2022-11-20T01:43:21;96128.06;;;10.10;66.26
20971;BME280;10644;48.834;10.088;2022-11-20T01:54:17;96127.53;;;10.05;66.12
20971;BME280;10644;48.834;10.088;2022-11-20T01:56:45;96116.63;;;10.02;65.63
20971;BME280;10644;48.834;10.088;2022-11-20T01:59:16;96119.19;;;10.02;65.45
20971;BME280;10644;48.834;10.088;2022-11-20T02:01:43;96122.84;;;9.84;65.81
20971;BME280;10644;48.834;10.088;2022-11-20T02:04:09;96125.56;;;9.67;66.03
20971;BME280;10644;48.834;10.088;2022-11-20T02:06:40;96118.03;;;9.65;66.70
20971;BME280;10644;48.834;10.088;2022-11-20T02:09:07;96125.13;;;9.60;66.51
20971;BME280;10644;48.834;10.088;2022-11-20T02:11:32;96115.72;;;9.61;66.67
20971;BME280;10644;48.834;10.088;2022-11-20T02:14:00;96129.78;;;9.54;66.60
20971;BME280;10644;48.834;10.088;2022-11-20T02:16:28;96128.13;;;9.53;66.82
20971;BME280;10644;48.834;10.088;2022-11-20T02:18:56;96118.28;;;9.47;66.53
20971;BME280;10644;48.834;10.088;2022-11-20T02:21:35;96128.59;;;9.45;66.33
20971;BME280;10644;48.834;10.088;2022-11-20T02:24:12;96125.19;;;9.45;66.16
20971;BME280;10644;48.834;10.088;2022-11-20T02:26:45;96129.88;;;9.52;66.11
20971;BME280;10644;48.834;10.088;2022-11-20T02:29:14;96132.78;;;9.46;66.72
20971;BME280;10644;48.834;10.088;2022-11-20T02:31:43;96128.94;;;9.53;66.24
20971;BME280;10644;48.834;10.088;2022-11-20T02:34:11;96133.91;;;9.56;66.39
20971;BME280;10644;48.834;10.088;2022-11-20T02:36:39;96132.16;;;9.57;65.95
20971;BME280;10644;48.834;10.088;2022-11-20T02:39:06;96123.66;;;9.70;65.96
20971;BME280;10644;48.834;10.088;2022-11-20T02:41:36;96130.25;;;9.60;65.66
20971;BME280;10644;48.834;10.088;2022-11-20T02:44:03;96125.13;;;9.60;66.00
20971;BME280;10644;48.834;10.088;2022-11-20T02:46:29;96133.91;;;9.56;66.02
20971;BME280;10644;48.834;10.088;2022-11-20T02:48:55;96136.28;;;9.73;65.56
20971;BME280;10644;48.834;10.088;2022-11-20T02:51:20;96116.19;;;9.67;65.54
20971;BME280;10644;48.834;10.088;2022-11-20T02:53:45;96116.91;;;9.69;65.47
20971;BME280;10644;48.834;10.088;2022-11-20T02:56:11;96118.00;;;9.79;65.19
20971;BME280;10644;48.834;10.088;2022-11-20T02:58:36;96110.97;;;9.83;65.06
20971;BME280;10644;48.834;10.088;2022-11-20T03:01:01;96122.47;;;9.90;64.90
20971;BME280;10644;48.834;10.088;2022-11-20T03:03:27;96114.91;;;9.74;64.51
20971;BME280;10644;48.834;10.088;2022-11-20T03:05:54;96127.88;;;9.71;65.12
20971;BME280;10644;48.834;10.088;2022-11-20T03:08:20;96115.63;;;9.62;65.24
20971;BME280;10644;48.834;10.088;2022-11-20T03:10:45;96122.56;;;9.46;65.03
20971;BME280;10644;48.834;10.088;2022-11-20T03:13:10;96112.72;;;9.54;65.34
20971;BME280;10644;48.834;10.088;2022-11-20T03:15:36;96112.91;;;9.65;64.96
20971;BME280;10644;48.834;10.088;2022-11-20T03:18:03;96109.81;;;9.60;65.04
20971;BME280;10644;48.834;10.088;2022-11-20T03:20:28;96107.78;;;9.65;64.75
20971;BME280;10644;48.834;10.088;2022-11-20T03:22:55;96110.16;;;9.82;64.62
20971;BME280;10644;48.834;10.088;2022-11-20T03:25:23;96115.72;;;9.89;63.93
20971;BME280;10644;48.834;10.088;2022-11-20T03:27:51;96109.78;;;9.88;63.65
20971;BME280;10644;48.834;10.088;2022-11-20T03:30:17;96114.34;;;9.83;63.97
20971;BME280;10644;48.834;10.088;2022-11-20T03:32:42;96119.09;;;9.75;64.13
20971;BME280;10644;48.834;10.088;2022-11-20T03:35:08;96111.25;;;9.64;64.32
20971;BME280;10644;48.834;10.088;2022-11-20T03:37:33;96118.09;;;9.64;64.26
20971;BME280;10644;48.834;10.088;2022-11-20T03:39:59;96125.31;;;9.57;64.60
20971;BME280;10644;48.834;10.088;2022-11-20T03:42:31;96123.31;;;9.62;64.47
20971;BME280;10644;48.834;10.088;2022-11-20T03:45:17;96129.97;;;9.51;64.57
20971;BME280;10644;48.834;10.088;2022-11-20T03:47:44;96127.31;;;9.38;65.53
20971;BME280;10644;48.834;10.088;2022-11-20T03:50:11;96130.66;;;9.39;65.87
20971;BME280;10644;48.834;10.088;2022-11-20T03:52:42;96124.03;;;9.50;65.41
20971;BME280;10644;48.834;10.088;2022-11-20T03:55:10;96119.09;;;9.61;64.86
20971;BME280;10644;48.834;10.088;2022-11-20T03:57:35;96118.72;;;9.53;65.36
20971;BME280;10644;48.834;10.088;2022-11-20T04:00:04;96117.19;;;9.65;64.87
20971;BME280;10644;48.834;10.088;2022-11-20T04:02:30;96120.94;;;9.59;65.27
20971;BME280;10644;48.834;10.088;2022-11-20T04:04:59;96119.91;;;9.48;65.36
20971;BME280;10644;48.834;10.088;2022-11-20T04:07:33;96129.50;;;9.44;65.90
20971;BME280;10644;48.834;10.088;2022-11-20T04:09:58;96126.38;;;9.39;65.64
20971;BME280;10644;48.834;10.088;2022-11-20T04:12:24;96112.97;;;9.50;65.39
20971;BME280;10644;48.834;10.088;2022-11-20T04:14:49;96104.41;;;9.51;65.23
20971;BME280;10644;48.834;10.088;2022-11-20T04:17:14;96109.97;;;9.43;64.96
20971;BME280;10644;48.834;10.088;2022-11-20T04:19:40;96112.34;;;9.46;65.16
20971;BME280;10644;48.834;10.088;2022-11-20T04:22:05;96102.28;;;9.57;64.94
20971;BME280;10644;48.834;10.088;2022-11-20T04:24:30;96103.94;;;9.58;65.00
20971;BME280;10644;48.834;10.088;2022-11-20T04:26:56;96106.13;;;9.50;64.41
20971;BME280;10644;48.834;10.088;2022-11-20T04:29:21;96110.94;;;9.27;65.21
20971;BME280;10644;48.834;10.088;2022-11-20T04:31:47;96109.06;;;9.44;64.57
20971;BME280;10644;48.834;10.088;2022-11-20T04:34:12;96107.88;;;9.36;64.66
20971;BME280;10644;48.834;10.088;2022-11-20T04:36:38;96106.94;;;9.37;64.34
20971;BME280;10644;48.834;10.088;2022-11-20T04:39:05;96101.75;;;9.52;64.46
20971;BME280;10644;48.834;10.088;2022-11-20T04:41:33;96105.69;;;9.58;64.37
20971;BME280;10644;48.834;10.088;2022-11-20T04:44:00;96109.25;;;9.55;64.19
20971;BME280;10644;48.834;10.088;2022-11-20T04:46:29;96096.09;;;9.61;63.67
20971;BME280;10644;48.834;10.088;2022-11-20T04:48:56;96103.06;;;9.59;63.44
20971;BME280;10644;48.834;10.088;2022-11-20T04:51:22;96103.22;;;9.56;63.41
20971;BME280;10644;48.834;10.088;2022-11-20T04:53:47;96104.31;;;9.66;63.65
20971;BME280;10644;48.834;10.088;2022-11-20T04:56:13;96104.28;;;9.80;63.26
20971;BME280;10644;48.834;10.088;2022-11-20T04:58:40;96098.94;;;9.85;63.37
20971;BME280;10644;48.834;10.088;2022-11-20T05:01:20;96099.47;;;9.76;63.10
20971;BME280;10644;48.834;10.088;2022-11-20T05:03:46;96096.63;;;9.80;63.01
20971;BME280;10644;48.834;10.088;2022-11-20T05:06:14;96087.16;;;9.82;62.78
20971;BME280;10644;48.834;10.088;2022-11-20T05:08:40;96091.63;;;9.79;62.50
20971;BME280;10644;48.834;10.088;2022-11-20T05:11:12;96088.25;;;9.78;62.89
20971;BME280;10644;48.834;10.088;2022-11-20T05:13:38;96085.13;;;9.73;62.76
20971;BME280;10644;48.834;10.088;2022-11-20T05:16:10;96093.59;;;9.88;62.70
20971;BME280;10644;48.834;10.088;2022-11-20T05:18:38;96082.63;;;10.00;61.98
20971;BME280;10644;48.834;10.088;2022-11-20T05:21:05;96086.22;;;10.11;62.28
20971;BME280;10644;48.834;10.088;2022-11-20T05:23:32;96090.31;;;10.14;62.39
20971;BME280;10644;48.834;10.088;2022-11-20T05:25:58;96087.13;;;10.10;61.88
20971;BME280;10644;48.834;10.088;2022-11-20T05:28:26;96094.34;;;10.04;61.46
20971;BME280;10644;48.834;10.088;2022-11-20T05:30:55;96096.75;;;9.79;62.28
20971;BME280;10644;48.834;10.088;2022-11-20T05:33:20;96096.53;;;9.82;62.00
20971;BME280;10644;48.834;10.088;2022-11-20T05:35:49;96089.31;;;9.74;62.11
20971;BME280;10644;48.834;10.088;2022-11-20T05:38:15;96090.53;;;9.55;62.52
20971;BME280;10644;48.834;10.088;2022-11-20T05:40:41;96093.28;;;9.52;63.20
20971;BME280;10644;48.834;10.088;2022-11-20T05:43:06;96093.63;;;9.60;62.91
20971;BME280;10644;48.834;10.088;2022-11-20T05:45:31;96096.00;;;9.77;62.96
20971;BME280;10644;48.834;10.088;2022-11-20T05:48:00;96092.16;;;9.84;62.52
20971;BME280;10644;48.834;10.088;2022-11-20T05:50:32;96092.81;;;9.87;62.62
20971;BME280;10644;48.834;10.088;2022-11-20T05:52:58;96091.44;;;9.68;62.43
20971;BME280;10644;48.834;10.088;2022-11-20T05:55:29;96098.38;;;9.66;62.47
20971;BME280;10644;48.834;10.088;2022-11-20T05:57:54;96103.19;;;9.70;62.93
20971;BME280;10644;48.834;10.088;2022-11-20T06:00:20;96097.53;;;9.79;62.33
20971;BME280;10644;48.834;10.088;2022-11-20T06:02:46;96096.91;;;9.62;62.97
20971;BME280;10644;48.834;10.088;2022-11-20T06:05:11;96106.03;;;9.66;62.25
20971;BME280;10644;48.834;10.088;2022-11-20T06:07:37;96100.94;;;9.52;63.33
20971;BME280;10644;48.834;10.088;2022-11-20T06:10:03;96104.31;;;9.52;62.56
20971;BME280;10644;48.834;10.088;2022-11-20T06:12:28;96098.56;;;9.63;62.47
20971;BME280;10644;48.834;10.088;2022-11-20T06:15:05;96098.28;;;9.53;63.02
20971;BME280;10644;48.834;10.088;2022-11-20T06:17:31;96098.63;;;9.47;63.40
20971;BME280;10644;48.834;10.088;2022-11-20T06:19:58;96097.91;;;9.45;63.55
20971;BME280;10644;48.834;10.088;2022-11-20T06:22:25;96101.03;;;9.50;63.47
20971;BME280;10644;48.834;10.088;2022-11-20T06:24:55;96098.84;;;9.44;63.66
20971;BME280;10644;48.834;10.088;2022-11-20T06:27:21;96102.75;;;9.64;63.26
20971;BME280;10644;48.834;10.088;2022-11-20T06:29:48;96099.19;;;9.52;63.60
20971;BME280;10644;48.834;10.088;2022-11-20T06:32:15;96106.41;;;9.46;63.25
20971;BME280;10644;48.834;10.088;2022-11-20T06:34:40;96103.84;;;9.60;63.20
20971;BME280;10644;48.834;10.088;2022-11-20T06:37:06;96103.03;;;9.45;63.50
20971;BME280;10644;48.834;10.088;2022-11-20T06:39:34;96102.66;;;9.37;63.75
20971;BME280;10644;48.834;10.088;2022-11-20T06:41:59;96107.06;;;9.49;63.72
20971;BME280;10644;48.834;10.088;2022-11-20T06:44:25;96110.97;;;9.55;63.45
20971;BME280;10644;48.834;10.088;2022-11-20T06:46:51;96122.38;;;9.63;63.47
20971;BME280;10644;48.834;10.088;2022-11-20T06:49:17;96121.56;;;9.49;63.27
20971;BME280;10644;48.834;10.088;2022-11-20T06:51:42;96120.38;;;9.54;63.60
20971;BME280;10644;48.834;10.088;2022-11-20T06:54:07;96109.53;;;9.51;63.55
20971;BME280;10644;48.834;10.088;2022-11-20T06:56:34;96113.44;;;9.56;64.02
20971;BME280;10644;48.834;10.088;2022-11-20T06:59:04;96129.25;;;9.63;63.23
20971;BME280;10644;48.834;10.088;2022-11-20T07:01:30;96113.06;;;9.62;63.94
20971;BME280;10644;48.834;10.088;2022-11-20T07:03:55;96116.09;;;9.69;63.98
20971;BME280;10644;48.834;10.088;2022-11-20T07:06:25;96116.09;;;9.69;63.77
20971;BME280;10644;48.834;10.088;2022-11-20T07:08:57;96120.09;;;9.73;62.93
20971;BME280;10644;48.834;10.088;2022-11-20T07:11:23;96119.63;;;9.52;64.46
20971;BME280;10644;48.834;10.088;2022-11-20T07:13:49;96117.81;;;9.68;63.89
20971;BME280;10644;48.834;10.088;2022-11-20T07:16:16;96123.84;;;9.81;63.25
20971;BME280;10644;48.834;10.088;2022-11-20T07:18:42;96120.22;;;9.71;62.89
20971;BME280;10644;48.834;10.088;2022-11-20T07:21:08;96121.09;;;9.70;63.04
20971;BME280;10644;48.834;10.088;2022-11-20T07:23:35;96125.22;;;9.73;63.23
20971;BME280;10644;48.834;10.088;2022-11-20T07:26:08;96119.75;;;9.79;63.37
20971;BME280;10644;48.834;10.088;2022-11-20T07:28:36;96135.91;;;9.79;63.23
20971;BME280;10644;48.834;10.088;2022-11-20T07:31:09;96127.16;;;9.83;62.48
20971;BME280;10644;48.834;10.088;2022-11-20T07:33:40;96126.94;;;9.86;62.45
20971;BME280;10644;48.834;10.088;2022-11-20T07:36:05;96133.81;;;9.86;62.90
20971;BME280;10644;48.834;10.088;2022-11-20T07:38:33;96126.22;;;9.70;62.75
20971;BME280;10644;48.834;10.088;2022-11-20T07:40:59;96130.81;;;9.65;62.56
20971;BME280;10644;48.834;10.088;2022-11-20T07:43:26;96131.16;;;9.73;62.61
20971;BME280;10644;48.834;10.088;2022-11-20T07:45:57;96131.00;;;9.76;62.38
20971;BME280;10644;48.834;10.088;2022-11-20T07:48:24;96127.78;;;9.87;61.67
20971;BME280;10644;48.834;10.088;2022-11-20T07:50:49;96126.31;;;9.83;62.16
20971;BME280;10644;48.834;10.088;2022-11-20T07:53:14;96130.06;;;9.91;61.94
20971;BME280;10644;48.834;10.088;2022-11-20T07:55:46;96144.88;;;9.72;62.09
20971;BME280;10644;48.834;10.088;2022-11-20T07:58:11;96122.22;;;9.66;61.79
20971;BME280;10644;48.834;10.088;2022-11-20T08:00:38;96131.16;;;9.73;62.48
20971;BME280;10644;48.834;10.088;2022-11-20T08:03:04;96136.81;;;9.92;62.26
20971;BME280;10644;48.834;10.088;2022-11-20T08:05:29;96134.41;;;10.03;61.45
20971;BME280;10644;48.834;10.088;2022-11-20T08:07:55;96143.22;;;9.99;61.56
20971;BME280;10644;48.834;10.088;2022-11-20T08:10:20;96133.78;;;10.00;61.24
20971;BME280;10644;48.834;10.088;2022-11-20T08:12:47;96138.28;;;9.82;61.61
20971;BME280;10644;48.834;10.088;2022-11-20T08:15:31;96143.56;;;9.79;61.28
20971;BME280;10644;48.834;10.088;2022-11-20T08:18:10;96137.00;;;9.89;61.22
20971;BME280;10644;48.834;10.088;2022-11-20T08:20:38;96138.47;;;9.93;61.24
20971;BME280;10644;48.834;10.088;2022-11-20T08:23:10;96133.63;;;9.89;61.74
20971;BME280;10644;48.834;10.088;2022-11-20T08:25:37;96131.16;;;10.01;61.57
20971;BME280;10644;48.834;10.088;2022-11-20T08:28:05;96132.69;;;9.90;61.84
20971;BME280;10644;48.834;10.088;2022-11-20T08:30:31;96139.56;;;9.75;61.84
20971;BME280;10644;48.834;10.088;2022-11-20T08:33:08;96139.19;;;9.81;61.13
20971;BME280;10644;48.834;10.088;2022-11-20T08:35:37;96137.38;;;9.83;61.62
20971;BME280;10644;48.834;10.088;2022-11-20T08:38:04;96131.16;;;9.73;61.53
20971;BME280;10644;48.834;10.088;2022-11-20T08:40:33;96136.53;;;9.83;61.32
20971;BME280;10644;48.834;10.088;2022-11-20T08:43:05;96130.31;;;9.73;61.81
20971;BME280;10644;48.834;10.088;2022-11-20T08:45:38;96142.13;;;9.61;62.02
20971;BME280;10644;48.834;10.088;2022-11-20T08:48:04;96147.03;;;9.64;62.66
20971;BME280;10644;48.834;10.088;2022-11-20T08:50:33;96143.19;;;9.57;62.36
20971;BME280;10644;48.834;10.088;2022-11-20T08:53:16;96143.28;;;9.56;63.36
20971;BME280;10644;48.834;10.088;2022-11-20T08:55:46;96143.66;;;9.78;63.21
20971;BME280;10644;48.834;10.088;2022-11-20T08:58:35;96147.97;;;9.77;62.75
20971;BME280;10644;48.834;10.088;2022-11-20T09:01:04;96153.34;;;9.59;63.07
20971;BME280;10644;48.834;10.088;2022-11-20T09:03:30;96158.72;;;9.54;63.57
20971;BME280;10644;48.834;10.088;2022-11-20T09:06:02;96158.34;;;9.46;64.04
20971;BME280;10644;48.834;10.088;2022-11-20T09:08:29;96159.34;;;9.44;64.38
20971;BME280;10644;48.834;10.088;2022-11-20T09:10:59;96157.47;;;9.61;64.50
20971;BME280;10644;48.834;10.088;2022-11-20T09:13:34;96153.53;;;9.84;64.07
20971;BME280;10644;48.834;10.088;2022-11-20T09:16:07;96150.34;;;9.94;64.95
20971;BME280;10644;48.834;10.088;2022-11-20T09:18:49;96149.06;;;10.01;63.77
20971;BME280;10644;48.834;10.088;2022-11-20T09:21:16;96150.09;;;9.85;64.02
20971;BME280;10644;48.834;10.088;2022-11-20T09:23:42;96151.25;;;9.65;65.38
20971;BME280;10644;48.834;10.088;2022-11-20T09:26:13;96158.38;;;9.74;65.14
20971;BME280;10644;48.834;10.088;2022-11-20T09:28:42;96160.00;;;9.75;65.31
20971;BME280;10644;48.834;10.088;2022-11-20T09:31:31;96154.53;;;9.67;64.96
20971;BME280;10644;48.834;10.088;2022-11-20T09:33:59;96150.50;;;9.63;65.21
20971;BME280;10644;48.834;10.088;2022-11-20T09:36:24;96150.06;;;9.57;65.35
20971;BME280;10644;48.834;10.088;2022-11-20T09:38:49;96154.50;;;9.53;65.07
20971;BME280;10644;48.834;10.088;2022-11-20T09:41:36;96152.25;;;9.63;65.01
20971;BME280;10644;48.834;10.088;2022-11-20T09:50:07;96145.50;;;9.76;65.00
20971;BME280;10644;48.834;10.088;2022-11-20T09:55:10;96162.75;;;9.72;65.11
20971;BME280;10644;48.834;10.088;2022-11-20T09:57:40;96167.31;;;9.67;65.42
20971;BME280;10644;48.834;10.088;2022-11-20T10:00:13;96171.53;;;9.68;65.90
20971;BME280;10644;48.834;10.088;2022-11-20T10:05:39;96170.00;;;9.80;65.03
20971;BME280;10644;48.834;10.088;2022-11-20T10:08:25;96167.78;;;9.74;65.80
20971;BME280;10644;48.834;10.088;2022-11-20T10:14:04;96168.41;;;9.49;65.97
20971;BME280;10644;48.834;10.088;2022-11-20T10:16:47;96175.44;;;9.46;66.25
20971;BME280;10644;48.834;10.088;2022-11-20T10:26:04;96165.84;;;9.63;66.35
20971;BME280;10644;48.834;10.088;2022-11-20T10:31:56;96164.94;;;9.50;67.05
20971;BME280;10644;48.834;10.088;2022-11-20T10:35:00;96169.31;;;9.62;66.68
20971;BME280;10644;48.834;10.088;2022-11-20T10:37:29;96165.00;;;9.49;67.25
20971;BME280;10644;48.834;10.088;2022-11-20T10:42:59;96171.88;;;9.48;66.73
20971;BME280;10644;48.834;10.088;2022-11-20T10:56:50;96167.78;;;9.30;67.89
20971;BME280;10644;48.834;10.088;2022-11-20T11:02:15;96156.28;;;9.23;68.00
20971;BME280;10644;48.834;10.088;2022-11-20T11:04:52;96160.97;;;9.31;68.83
20971;BME280;10644;48.834;10.088;2022-11-20T11:07:24;96152.59;;;9.43;67.89
20971;BME280;10644;48.834;10.088;2022-11-20T11:09:56;96152.97;;;9.51;68.06
20971;BME280;10644;48.834;10.088;2022-11-20T11:12:24;96151.59;;;9.45;68.02
20971;BME280;10644;48.834;10.088;2022-11-20T11:14:56;96155.63;;;9.49;67.78
20971;BME280;10644;48.834;10.088;2022-11-20T11:17:28;96151.78;;;9.56;67.59
20971;BME280;10644;48.834;10.088;2022-11-20T11:20:14;96148.75;;;9.50;67.95
20971;BME280;10644;48.834;10.088;2022-11-20T11:22:48;96141.91;;;9.64;67.87
20971;BME280;10644;48.834;10.088;2022-11-20T11:25:35;96142.56;;;9.54;69.12
20971;BME280;10644;48.834;10.088;2022-11-20T11:28:04;96144.41;;;9.66;68.11
20971;BME280;10644;48.834;10.088;2022-11-20T11:30:42;96144.59;;;9.63;67.87
20971;BME280;10644;48.834;10.088;2022-11-20T11:33:31;96147.13;;;9.77;67.68
20971;BME280;10644;48.834;10.088;2022-11-20T11:36:18;96157.19;;;9.52;67.84
20971;BME280;10644;48.834;10.088;2022-11-20T11:38:50;96148.94;;;9.47;68.62
20971;BME280;10644;48.834;10.088;2022-11-20T11:41:50;96161.97;;;9.28;68.76
20971;BME280;10644;48.834;10.088;2022-11-20T11:47:09;96155.66;;;9.20;69.98
20971;BME280;10644;48.834;10.088;2022-11-20T11:49:38;96143.16;;;9.15;69.95
20971;BME280;10644;48.834;10.088;2022-11-20T11:52:17;96142.25;;;9.30;69.80
20971;BME280;10644;48.834;10.088;2022-11-20T11:55:09;96149.19;;;9.28;69.86
20971;BME280;10644;48.834;10.088;2022-11-20T12:00:23;96135.25;;;9.34;69.19
20971;BME280;10644;48.834;10.088;2022-11-20T12:03:24;96136.25;;;9.45;69.40
20971;BME280;10644;48.834;10.088;2022-11-20T12:06:21;96128.13;;;9.39;69.46
20971;BME280;10644;48.834;10.088;2022-11-20T12:09:05;96134.78;;;9.27;69.75
20971;BME280;10644;48.834;10.088;2022-11-20T12:14:48;96131.97;;;9.02;70.44
20971;BME280;10644;48.834;10.088;2022-11-20T12:17:16;96122.72;;;9.15;70.08
20971;BME280;10644;48.834;10.088;2022-11-20T12:19:43;96127.59;;;9.34;69.56
20971;BME280;10644;48.834;10.088;2022-11-20T12:28:11;96123.56;;;9.30;68.82
20971;BME280;10644;48.834;10.088;2022-11-20T12:30:48;96125.66;;;9.37;68.43
20971;BME280;10644;48.834;10.088;2022-11-20T12:36:13;96120.56;;;9.51;68.83
20971;BME280;10644;48.834;10.088;2022-11-20T12:39:08;96117.66;;;9.43;68.45
20971;BME280;10644;48.834;10.088;2022-11-20T12:55:57;96102.56;;;10.49;67.44
20971;BME280;10644;48.834;10.088;2022-11-20T12:58:35;96101.28;;;10.42;67.43
20971;BME280;10644;48.834;10.088;2022-11-20T13:07:12;96097.09;;;10.41;67.25
20971;BME280;10644;48.834;10.088;2022-11-20T13:09:44;96094.69;;;10.52;67.33
20971;BME280;10644;48.834;10.088;2022-11-20T13:12:36;96088.25;;;10.59;66.51
20971;BME280;10644;48.834;10.088;2022-11-20T13:18:00;96086.44;;;10.61;66.10
20971;BME280;10644;48.834;10.088;2022-11-20T13:20:29;96092.00;;;10.80;65.46
20971;BME280;10644;48.834;10.088;2022-11-20T13:23:01;96090.81;;;10.86;65.96
20971;BME280;10644;48.834;10.088;2022-11-20T13:25:35;96079.34;;;11.16;64.42
20971;BME280;10644;48.834;10.088;2022-11-20T13:30:37;96078.63;;;11.14;63.42
20971;BME280;10644;48.834;10.088;2022-11-20T13:33:34;96074.53;;;11.12;62.92
20971;BME280;10644;48.834;10.088;2022-11-20T13:36:29;96077.72;;;11.15;63.28
20971;BME280;10644;48.834;10.088;2022-11-20T13:38:56;96081.41;;;11.11;62.14
20971;BME280;10644;48.834;10.088;2022-11-20T13:41:37;96068.03;;;10.81;62.54
20971;BME280;10644;48.834;10.088;2022-11-20T13:46:45;96068.09;;;10.67;63.13
20971;BME280;10644;48.834;10.088;2022-11-20T13:49:33;96065.31;;;10.58;63.82
20971;BME280;10644;48.834;10.088;2022-11-20T13:55:16;96070.31;;;10.59;63.90
20971;BME280;10644;48.834;10.088;2022-11-20T14:00:24;96074.91;;;10.54;63.50
20971;BME280;10644;48.834;10.088;2022-11-20T14:03:09;96076.06;;;10.36;64.36
20971;BME280;10644;48.834;10.088;2022-11-20T14:05:54;96073.81;;;10.32;64.79
20971;BME280;10644;48.834;10.088;2022-11-20T14:08:47;96068.53;;;10.47;64.52
20971;BME280;10644;48.834;10.088;2022-11-20T14:14:21;96068.59;;;10.60;64.04
20971;BME280;10644;48.834;10.088;2022-11-20T14:16:49;96062.63;;;10.59;64.02
20971;BME280;10644;48.834;10.088;2022-11-20T14:19:35;96065.19;;;10.59;65.01
20971;BME280;10644;48.834;10.088;2022-11-20T14:22:24;96057.50;;;10.59;64.48
20971;BME280;10644;48.834;10.088;2022-11-20T14:27:37;96057.50;;;10.59;63.93
20971;BME280;10644;48.834;10.088;2022-11-20T14:30:05;96056.41;;;10.63;63.90
20971;BME280;10644;48.834;10.088;2022-11-20T14:32:35;96049.31;;;10.54;63.17
20971;BME280;10644;48.834;10.088;2022-11-20T14:35:07;96057.34;;;10.62;63.15
20971;BME280;10644;48.834;10.088;2022-11-20T14:37:37;96052.22;;;10.62;63.11
20971;BME280;10644;48.834;10.088;2022-11-20T14:40:24;96052.84;;;10.66;62.83
20971;BME280;10644;48.834;10.088;2022-11-20T14:42:51;96049.97;;;10.70;62.71
20971;BME280;10644;48.834;10.088;2022-11-20T14:45:17;96050.19;;;10.67;63.06
20971;BME280;10644;48.834;10.088;2022-11-20T14:47:46;96039.91;;;10.55;63.10
20971;BME280;10644;48.834;10.088;2022-11-20T14:50:19;96040.00;;;10.53;63.65
20971;BME280;10644;48.834;10.088;2022-11-20T14:52:56;96044.84;;;10.70;63.00
20971;BME280;10644;48.834;10.088;2022-11-20T14:55:34;96045.47;;;10.74;62.35
20971;BME280;10644;48.834;10.088;2022-11-20T14:58:05;96042.50;;;10.67;62.01
20971;BME280;10644;48.834;10.088;2022-11-20T15:00:34;96046.88;;;10.65;62.01
20971;BME280;10644;48.834;10.088;2022-11-20T15:03:00;96047.34;;;10.84;62.15